createdAt,value
2022-11-14T00:01:22.820Z,65.90
2022-11-14T00:03:52.062Z,65.90
2022-11-14T00:06:22.202Z,65.90
2022-11-14T00:08:50.369Z,65.90
2022-11-14T00:11:18.668Z,65.90
2022-11-14T00:13:46.839Z,66.00
2022-11-14T00:16:15.062Z,65.80
2022-11-14T00:18:43.427Z,65.80
2022-11-14T00:21:11.608Z,65.70
2022-11-14T00:23:41.149Z,65.80
2022-11-14T00:26:09.300Z,65.90
2022-11-14T00:28:37.473Z,65.90
2022-11-14T00:31:05.956Z,66.60
2022-11-14T00:33:34.113Z,65.90
2022-11-14T00:36:02.445Z,65.80
2022-11-14T00:38:30.837Z,65.80
2022-11-14T00:41:00.500Z,65.90
2022-11-14T00:43:28.876Z,65.90
2022-11-14T00:45:57.131Z,65.90
2022-11-14T00:48:25.304Z,65.90
2022-11-14T00:50:53.482Z,65.90
2022-11-14T00:53:21.655Z,65.90
2022-11-14T00:55:49.824Z,65.80
2022-11-14T00:58:19.373Z,65.90
2022-11-14T01:00:47.623Z,66.00
2022-11-14T01:03:15.910Z,65.90
2022-11-14T01:05:44.472Z,65.90
2022-11-14T01:08:14.248Z,65.80
2022-11-14T01:10:43.135Z,65.80
2022-11-14T01:13:11.345Z,65.70
2022-11-14T01:15:45.428Z,65.80
2022-11-14T01:18:15.921Z,65.80
2022-11-14T01:20:45.244Z,65.90
2022-11-14T01:23:14.953Z,66.10
2022-11-14T01:25:44.993Z,66.20
2022-11-14T01:28:15.607Z,66.60
2022-11-14T01:30:45.602Z,66.70
2022-11-14T01:33:13.806Z,67.10
2022-11-14T01:35:41.985Z,66.90
2022-11-14T01:38:14.933Z,66.70
2022-11-14T01:40:44.039Z,66.50
2022-11-14T01:43:30.350Z,66.30
2022-11-14T01:46:02.361Z,66.10
2022-11-14T01:48:36.714Z,66.00
2022-11-14T01:51:14.090Z,66.20
2022-11-14T01:53:43.020Z,66.10
2022-11-14T01:56:14.287Z,66.20
2022-11-14T01:58:46.488Z,66.30
2022-11-14T02:01:16.380Z,66.40
2022-11-14T02:03:47.062Z,66.50
2022-11-14T02:06:18.138Z,66.40
2022-11-14T02:08:46.811Z,66.40
2022-11-14T02:11:14.974Z,66.20
2022-11-14T02:13:43.243Z,66.20
2022-11-14T02:16:11.521Z,66.30
2022-11-14T02:18:41.069Z,66.30
2022-11-14T02:21:10.659Z,66.30
2022-11-14T02:23:38.837Z,66.40
2022-11-14T02:26:07.003Z,66.40
2022-11-14T02:28:35.182Z,66.40
2022-11-14T02:31:03.431Z,66.30
2022-11-14T02:33:31.588Z,66.20
2022-11-14T02:35:59.769Z,66.20
2022-11-14T02:38:29.475Z,66.20
2022-11-14T02:40:57.929Z,66.30
2022-11-14T02:43:26.111Z,66.30
2022-11-14T02:45:54.298Z,66.20
2022-11-14T02:48:22.491Z,66.50
2022-11-14T02:50:51.665Z,66.40
2022-11-14T02:53:19.852Z,66.30
2022-11-14T02:55:49.417Z,66.10
2022-11-14T02:58:17.613Z,66.20
2022-11-14T03:01:06.253Z,66.20
2022-11-14T03:03:33.959Z,66.40
2022-11-14T03:06:02.386Z,66.30
2022-11-14T03:08:30.952Z,66.30
2022-11-14T03:11:05.488Z,66.20
2022-11-14T03:13:33.750Z,66.20
2022-11-14T03:16:07.436Z,66.30
2022-11-14T03:18:36.189Z,66.50
2022-11-14T03:21:08.090Z,66.60
2022-11-14T03:23:36.038Z,66.40
2022-11-14T03:26:08.269Z,66.50
2022-11-14T03:28:36.796Z,66.30
2022-11-14T03:31:05.585Z,66.30
2022-11-14T03:33:33.997Z,66.30
2022-11-14T03:36:02.486Z,66.20
2022-11-14T03:38:31.220Z,66.30
2022-11-14T03:41:00.353Z,66.30
2022-11-14T03:43:32.682Z,66.40
2022-11-14T03:46:01.295Z,66.50
2022-11-14T03:48:30.238Z,66.50
2022-11-14T03:50:59.118Z,66.50
2022-11-14T03:53:28.311Z,66.50
2022-11-14T03:55:56.882Z,66.50
2022-11-14T03:58:25.052Z,66.60
2022-11-14T04:00:56.089Z,66.70
2022-11-14T04:03:24.468Z,66.60
2022-11-14T04:05:52.830Z,66.60
2022-11-14T04:08:21.114Z,66.60
2022-11-14T04:10:49.799Z,66.80
2022-11-14T04:13:18.045Z,66.80
2022-11-14T04:15:46.238Z,66.90
2022-11-14T04:18:15.838Z,66.90
2022-11-14T04:20:44.012Z,67.10
2022-11-14T04:23:12.169Z,67.20
2022-11-14T04:25:40.353Z,67.30
2022-11-14T04:28:08.504Z,68.10
2022-11-14T04:30:36.752Z,67.30
2022-11-14T04:33:05.112Z,67.40
2022-11-14T04:35:34.665Z,67.60
2022-11-14T04:38:02.855Z,67.60
2022-11-14T04:40:31.143Z,67.50
2022-11-14T04:42:59.343Z,67.60
2022-11-14T04:45:27.686Z,67.60
2022-11-14T04:47:55.981Z,67.30
2022-11-14T04:50:24.150Z,67.10
2022-11-14T04:52:54.947Z,67.00
2022-11-14T04:55:23.135Z,66.90
2022-11-14T04:57:55.926Z,67.00
2022-11-14T05:00:24.652Z,67.00
2022-11-14T05:02:52.921Z,67.00
2022-11-14T05:05:21.152Z,67.10
2022-11-14T05:07:49.336Z,67.00
2022-11-14T05:10:19.093Z,67.00
2022-11-14T05:12:47.265Z,67.00
2022-11-14T05:15:15.550Z,67.90
2022-11-14T05:17:43.829Z,67.20
2022-11-14T05:20:13.108Z,67.40
2022-11-14T05:22:41.275Z,67.40
2022-11-14T05:25:10.433Z,67.50
2022-11-14T05:27:40.025Z,67.60
2022-11-14T05:30:09.369Z,67.50
2022-11-14T05:32:37.555Z,67.50
2022-11-14T05:35:06.637Z,67.40
2022-11-14T05:37:36.105Z,67.40
2022-11-14T05:40:04.502Z,67.30
2022-11-14T05:42:32.665Z,67.00
2022-11-14T05:45:02.247Z,66.90
2022-11-14T05:47:30.422Z,66.90
2022-11-14T05:49:58.624Z,66.90
2022-11-14T05:52:26.802Z,67.10
2022-11-14T05:54:55.549Z,67.30
2022-11-14T05:57:23.743Z,67.40
2022-11-14T05:59:51.928Z,67.50
2022-11-14T06:02:21.514Z,67.30
2022-11-14T06:04:49.786Z,67.30
2022-11-14T06:07:20.402Z,67.50
2022-11-14T06:09:48.798Z,67.80
2022-11-14T06:12:16.953Z,67.80
2022-11-14T06:14:45.118Z,68.40
2022-11-14T06:17:13.316Z,67.50
2022-11-14T06:19:42.867Z,67.40
2022-11-14T06:22:11.063Z,67.40
2022-11-14T06:24:39.237Z,67.40
2022-11-14T06:27:07.394Z,67.50
2022-11-14T06:29:35.895Z,67.50
2022-11-14T06:32:04.153Z,67.30
2022-11-14T06:34:32.325Z,67.30
2022-11-14T06:37:01.881Z,67.30
2022-11-14T06:39:30.042Z,67.20
2022-11-14T06:41:58.382Z,67.10
2022-11-14T06:44:30.680Z,67.00
2022-11-14T06:46:59.338Z,67.10
2022-11-14T06:49:27.941Z,68.00
2022-11-14T06:51:56.301Z,67.50
2022-11-14T06:54:25.907Z,67.80
2022-11-14T06:56:54.111Z,67.90
2022-11-14T06:59:22.272Z,68.10
2022-11-14T07:01:50.409Z,68.30
2022-11-14T07:04:18.750Z,68.50
2022-11-14T07:06:47.002Z,68.30
2022-11-14T07:09:15.437Z,68.20
2022-11-14T07:11:46.866Z,68.30
2022-11-14T07:14:15.144Z,68.50
2022-11-14T07:16:43.369Z,68.90
2022-11-14T07:19:12.353Z,67.80
2022-11-14T07:21:40.867Z,67.90
2022-11-14T07:24:09.503Z,67.80
2022-11-14T07:26:37.680Z,67.80
2022-11-14T07:29:07.230Z,67.70
2022-11-14T07:31:35.383Z,67.50
2022-11-14T07:34:03.548Z,67.50
2022-11-14T07:36:31.717Z,67.50
2022-11-14T07:38:59.888Z,67.50
2022-11-14T07:41:28.037Z,67.60
2022-11-14T07:43:57.203Z,67.60
2022-11-14T07:46:26.807Z,67.60
2022-11-14T07:48:56.034Z,67.70
2022-11-14T07:51:24.207Z,67.70
2022-11-14T07:53:54.332Z,67.60
2022-11-14T07:56:22.500Z,67.60
2022-11-14T07:58:50.675Z,67.50
2022-11-14T08:01:18.902Z,67.60
2022-11-14T08:03:48.502Z,67.50
2022-11-14T08:06:18.027Z,67.40
2022-11-14T08:08:46.281Z,67.40
2022-11-14T08:11:23.012Z,67.30
2022-11-14T08:14:02.737Z,67.40
2022-11-14T08:16:30.948Z,67.30
2022-11-14T08:19:00.645Z,67.30
2022-11-14T08:21:28.839Z,67.50
2022-11-14T08:23:57.017Z,67.50
2022-11-14T08:26:27.911Z,67.70
2022-11-14T08:28:58.318Z,67.90
2022-11-14T08:31:26.506Z,68.00
2022-11-14T08:33:54.860Z,68.20
2022-11-14T08:36:24.404Z,68.40
2022-11-14T08:38:55.183Z,68.60
2022-11-14T08:41:27.167Z,68.80
2022-11-14T08:43:55.373Z,69.30
2022-11-14T08:46:23.549Z,70.00
2022-11-14T08:48:51.769Z,70.40
2022-11-14T08:51:19.940Z,70.60
2022-11-14T08:53:49.511Z,71.60
2022-11-14T08:56:17.698Z,70.90
2022-11-14T08:58:45.901Z,70.90
2022-11-14T09:01:14.079Z,70.90
2022-11-14T09:03:42.382Z,71.00
2022-11-14T09:06:10.814Z,71.00
2022-11-14T09:08:38.984Z,70.80
2022-11-14T09:11:10.102Z,70.80
2022-11-14T09:13:38.435Z,71.00
2022-11-14T09:16:07.160Z,70.90
2022-11-14T09:18:35.343Z,70.90
2022-11-14T09:21:04.580Z,70.90
2022-11-14T09:23:33.744Z,70.90
2022-11-14T09:26:05.843Z,70.90
2022-11-14T09:28:35.580Z,71.10
2022-11-14T09:31:04.388Z,70.90
2022-11-14T09:33:32.746Z,71.00
2022-11-14T09:36:01.891Z,70.90
2022-11-14T09:38:34.077Z,70.90
2022-11-14T09:41:23.432Z,70.80
2022-11-14T09:44:27.317Z,71.00
2022-11-14T09:47:00.011Z,71.20
2022-11-14T09:49:33.142Z,71.20
2022-11-14T09:52:10.401Z,71.00
2022-11-14T09:54:45.820Z,70.80
2022-11-14T09:57:19.085Z,70.60
2022-11-14T09:59:49.046Z,70.50
2022-11-14T10:02:29.004Z,70.20
2022-11-14T10:05:08.697Z,70.20
2022-11-14T10:07:48.583Z,70.20
2022-11-14T10:10:27.568Z,70.20
2022-11-14T10:13:02.964Z,70.10
2022-11-14T10:15:38.147Z,70.00
2022-11-14T10:18:17.810Z,69.80
2022-11-14T10:20:51.645Z,69.70
2022-11-14T10:23:32.694Z,69.60
2022-11-14T10:26:10.878Z,69.60
2022-11-14T10:28:51.863Z,69.90
2022-11-14T10:31:34.255Z,69.80
2022-11-14T10:34:09.031Z,69.70
2022-11-14T10:36:50.319Z,69.60
2022-11-14T10:39:23.249Z,69.60
2022-11-14T10:41:59.940Z,69.60
2022-11-14T10:44:37.944Z,69.60
2022-11-14T10:47:11.928Z,69.60
2022-11-14T10:49:41.146Z,69.70
2022-11-14T10:52:14.987Z,69.70
2022-11-14T10:54:47.684Z,69.90
2022-11-14T10:57:18.371Z,70.10
2022-11-14T10:59:47.390Z,70.20
2022-11-14T11:02:17.342Z,70.10
2022-11-14T11:04:46.713Z,70.30
2022-11-14T11:07:40.208Z,70.30
2022-11-14T11:10:37.600Z,70.20
2022-11-14T11:13:05.882Z,70.00
2022-11-14T11:15:41.366Z,69.80
2022-11-14T11:18:27.100Z,69.50
2022-11-14T11:21:07.479Z,69.40
2022-11-14T11:23:36.417Z,69.40
2022-11-14T11:26:07.967Z,69.30
2022-11-14T11:28:37.997Z,69.30
2022-11-14T11:31:07.691Z,69.40
2022-11-14T11:33:39.715Z,69.60
2022-11-14T11:36:13.333Z,69.80
2022-11-14T11:38:42.443Z,69.60
2022-11-14T11:42:00.885Z,69.60
2022-11-14T11:44:16.546Z,69.10
2022-11-14T11:46:53.002Z,69.00
2022-11-14T11:49:35.127Z,69.00
2022-11-14T11:52:04.653Z,69.00
2022-11-14T11:54:46.321Z,69.10
2022-11-14T11:57:21.670Z,68.80
2022-11-14T11:59:53.788Z,68.70
2022-11-14T12:02:25.147Z,68.70
2022-11-14T12:04:57.216Z,68.60
2022-11-14T12:07:35.945Z,68.50
2022-11-14T12:10:13.902Z,68.40
2022-11-14T12:13:12.489Z,68.40
2022-11-14T12:15:52.584Z,68.20
2022-11-14T12:18:55.697Z,68.50
2022-11-14T12:21:43.964Z,68.40
2022-11-14T12:24:42.376Z,68.60
2022-11-14T12:27:31.130Z,68.30
2022-11-14T12:30:11.615Z,68.40
2022-11-14T12:32:43.782Z,68.40
2022-11-14T12:35:19.356Z,68.50
2022-11-14T12:37:55.404Z,68.50
2022-11-14T12:40:33.175Z,68.40
2022-11-14T12:43:02.971Z,68.40
2022-11-14T12:45:57.833Z,68.20
2022-11-14T12:48:32.766Z,68.00
2022-11-14T12:51:01.946Z,67.90
2022-11-14T12:53:42.517Z,67.70
2022-11-14T12:56:21.653Z,67.70
2022-11-14T12:59:25.275Z,67.90
2022-11-14T13:02:22.423Z,67.80
2022-11-14T13:05:14.333Z,67.80
2022-11-14T13:07:52.367Z,67.80
2022-11-14T13:10:29.931Z,67.80
2022-11-14T13:13:24.205Z,67.60
2022-11-14T13:16:11.943Z,67.80
2022-11-14T13:19:11.153Z,67.90
2022-11-14T13:21:48.645Z,68.10
2022-11-14T13:24:17.748Z,68.10
2022-11-14T13:26:52.379Z,67.90
2022-11-14T13:30:02.025Z,67.50
2022-11-14T13:33:04.456Z,67.50
2022-11-14T13:35:38.280Z,67.60
2022-11-14T13:38:33.203Z,67.90
2022-11-14T13:41:12.558Z,67.70
2022-11-14T13:43:56.664Z,67.60
2022-11-14T13:46:35.132Z,67.50
2022-11-14T13:49:19.939Z,67.70
2022-11-14T13:51:48.606Z,67.50
2022-11-14T13:54:18.729Z,67.70
2022-11-14T13:57:01.031Z,67.60
2022-11-14T13:59:54.762Z,67.60
2022-11-14T14:02:40.433Z,67.60
2022-11-14T14:05:22.265Z,67.40
2022-11-14T14:08:04.048Z,67.50
2022-11-14T14:10:39.170Z,67.50
2022-11-14T14:13:19.109Z,67.40
2022-11-14T14:16:01.138Z,67.30
2022-11-14T14:18:34.688Z,67.30
2022-11-14T14:21:12.630Z,67.50
2022-11-14T14:23:47.219Z,67.20
2022-11-14T14:26:26.257Z,67.20
2022-11-14T14:29:06.303Z,67.30
2022-11-14T14:31:38.917Z,67.30
2022-11-14T14:34:23.339Z,67.30
2022-11-14T14:36:53.090Z,67.40
2022-11-14T14:39:25.236Z,67.40
2022-11-14T14:41:55.909Z,67.50
2022-11-14T14:44:27.782Z,67.50
2022-11-14T14:46:57.485Z,67.50
2022-11-14T14:49:29.293Z,67.50
2022-11-14T14:51:58.883Z,67.40
2022-11-14T14:54:29.782Z,67.50
2022-11-14T14:57:01.219Z,67.50
2022-11-14T14:59:31.417Z,67.50
2022-11-14T15:02:01.324Z,67.40
2022-11-14T15:04:30.623Z,67.40
2022-11-14T15:06:58.934Z,67.30
2022-11-14T15:09:29.680Z,68.00
2022-11-14T15:12:00.503Z,67.30
2022-11-14T15:14:32.374Z,67.30
2022-11-14T15:17:02.799Z,67.40
2022-11-14T15:19:39.069Z,67.40
2022-11-14T15:22:23.792Z,67.30
2022-11-14T15:25:18.707Z,67.30
2022-11-14T15:27:48.924Z,67.30
2022-11-14T15:30:25.858Z,67.40
2022-11-14T15:32:57.066Z,67.40
2022-11-14T15:35:31.285Z,67.50
2022-11-14T15:38:42.117Z,67.50
2022-11-14T15:41:19.530Z,67.60
2022-11-14T15:43:53.124Z,67.50
2022-11-14T15:46:40.951Z,67.60
2022-11-14T15:49:18.437Z,67.60
2022-11-14T15:51:49.333Z,67.60
2022-11-14T15:54:26.063Z,67.70
2022-11-14T15:56:55.626Z,67.70
2022-11-14T15:59:24.273Z,67.80
2022-11-14T16:01:55.051Z,67.80
2022-11-14T16:04:29.455Z,67.90
2022-11-14T16:06:57.775Z,68.00
2022-11-14T16:09:26.121Z,67.90
2022-11-14T16:11:54.377Z,68.00
2022-11-14T16:14:22.566Z,68.00
2022-11-14T16:16:50.768Z,68.10
2022-11-14T16:19:19.013Z,68.10
2022-11-14T16:21:49.027Z,68.10
2022-11-14T16:24:19.753Z,68.10
2022-11-14T16:26:48.374Z,68.30
2022-11-14T16:29:17.288Z,68.40
2022-11-14T16:31:45.560Z,68.50
2022-11-14T16:34:18.654Z,68.50
2022-11-14T16:36:48.783Z,68.70
2022-11-14T16:39:17.136Z,68.70
2022-11-14T16:41:45.306Z,68.80
2022-11-14T16:44:16.971Z,68.90
2022-11-14T16:46:45.494Z,68.90
2022-11-14T16:49:15.896Z,68.90
2022-11-14T16:51:49.604Z,68.90
2022-11-14T16:54:20.565Z,68.90
2022-11-14T16:56:49.169Z,68.90
2022-11-14T16:59:17.482Z,68.90
2022-11-14T17:01:46.818Z,68.90
2022-11-14T17:04:15.098Z,68.90
2022-11-14T17:06:43.262Z,68.90
2022-11-14T17:09:14.623Z,68.90
2022-11-14T17:11:45.233Z,69.00
2022-11-14T17:14:13.701Z,69.00
2022-11-14T17:16:41.878Z,69.10
2022-11-14T17:19:10.036Z,69.10
2022-11-14T17:21:38.204Z,69.10
2022-11-14T17:24:07.074Z,69.10
2022-11-14T17:26:36.594Z,69.20
2022-11-14T17:29:06.414Z,69.10
2022-11-14T17:31:38.839Z,69.20
2022-11-14T17:34:10.623Z,69.20
2022-11-14T17:36:38.801Z,69.20
2022-11-14T17:39:07.104Z,69.30
2022-11-14T17:41:35.276Z,69.20
2022-11-14T17:44:03.725Z,69.20
2022-11-14T17:46:33.293Z,69.10
2022-11-14T17:49:01.586Z,69.10
2022-11-14T17:51:29.810Z,69.20
2022-11-14T17:53:57.986Z,69.20
2022-11-14T17:56:27.489Z,69.30
2022-11-14T17:58:55.713Z,69.50
2022-11-14T18:01:26.233Z,69.60
2022-11-14T18:04:01.661Z,69.70
2022-11-14T18:06:34.371Z,69.90
2022-11-14T18:09:05.141Z,70.00
2022-11-14T18:11:33.506Z,70.10
2022-11-14T18:14:01.700Z,70.10
2022-11-14T18:16:50.410Z,70.10
2022-11-14T18:19:20.632Z,70.20
2022-11-14T18:21:53.308Z,70.30
2022-11-14T18:24:23.647Z,70.20
2022-11-14T18:26:51.847Z,70.30
2022-11-14T18:29:20.197Z,70.20
2022-11-14T18:31:48.545Z,74.00
2022-11-14T18:34:17.025Z,76.10
2022-11-14T18:36:47.013Z,75.00
2022-11-14T18:39:15.413Z,74.00
2022-11-14T18:41:43.595Z,72.70
2022-11-14T18:44:11.766Z,70.40
2022-11-14T18:46:39.952Z,68.60
2022-11-14T18:49:08.156Z,67.50
2022-11-14T18:51:42.012Z,67.50
2022-11-14T18:54:13.877Z,66.40
2022-11-14T18:56:42.076Z,66.20
2022-11-14T18:59:10.464Z,66.40
2022-11-14T19:01:38.710Z,66.40
2022-11-14T19:04:08.959Z,66.70
2022-11-14T19:06:39.118Z,66.90
2022-11-14T19:09:11.398Z,67.10
2022-11-14T19:11:58.788Z,67.40
2022-11-14T19:14:26.958Z,67.50
2022-11-14T19:16:55.597Z,67.70
2022-11-14T19:19:23.887Z,68.00
2022-11-14T19:21:52.480Z,68.10
2022-11-14T19:24:20.673Z,68.30
2022-11-14T19:26:50.217Z,68.50
2022-11-14T19:29:18.384Z,68.70
2022-11-14T19:31:46.550Z,68.90
2022-11-14T19:34:16.073Z,68.90
2022-11-14T19:37:01.096Z,69.00
2022-11-14T19:39:29.711Z,69.10
2022-11-14T19:41:59.310Z,69.20
2022-11-14T19:44:27.485Z,69.40
2022-11-14T19:46:55.733Z,69.40
2022-11-14T19:49:23.926Z,69.40
2022-11-14T19:51:52.262Z,69.50
2022-11-14T19:54:20.505Z,69.60
2022-11-14T19:56:48.653Z,69.70
2022-11-14T19:59:23.960Z,69.70
2022-11-14T20:02:03.140Z,69.60
2022-11-14T20:04:36.843Z,69.60
2022-11-14T20:07:06.247Z,69.50
2022-11-14T20:09:34.538Z,69.50
2022-11-14T20:12:03.220Z,69.50
2022-11-14T20:14:32.854Z,69.50
2022-11-14T20:17:01.069Z,69.50
2022-11-14T20:19:29.281Z,69.60
2022-11-14T20:21:57.553Z,69.60
2022-11-14T20:24:25.769Z,69.70
2022-11-14T20:26:53.989Z,69.80
2022-11-14T20:29:22.281Z,69.90
2022-11-14T20:31:51.900Z,69.90
2022-11-14T20:34:23.116Z,70.00
2022-11-14T20:39:39.658Z,69.90
2022-11-14T20:42:07.886Z,69.90
2022-11-14T20:44:36.102Z,69.90
2022-11-14T20:47:10.639Z,69.90
2022-11-14T20:49:39.451Z,70.00
2022-11-14T20:52:07.697Z,69.90
2022-11-14T20:54:35.958Z,70.00
2022-11-14T20:57:04.253Z,70.00
2022-11-14T20:59:32.473Z,69.90
2022-11-14T21:02:00.782Z,70.00
2022-11-14T21:04:30.475Z,70.00
2022-11-14T21:06:58.673Z,70.10
2022-11-14T21:09:27.132Z,70.10
2022-11-14T21:11:55.305Z,70.10
2022-11-14T21:14:23.493Z,70.20
2022-11-14T21:16:51.689Z,70.30
2022-11-14T21:19:20.062Z,70.50
2022-11-14T21:21:49.759Z,70.60
2022-11-14T21:24:17.991Z,70.70
2022-11-14T21:26:46.273Z,70.80
2022-11-14T21:29:15.629Z,70.80
2022-11-14T21:31:46.506Z,71.00
2022-11-14T21:34:18.021Z,71.10
2022-11-14T21:36:47.270Z,71.10
2022-11-14T21:39:18.016Z,71.20
2022-11-14T21:41:48.500Z,72.00
2022-11-14T21:44:18.234Z,71.40
2022-11-14T21:46:48.514Z,71.60
2022-11-14T21:49:16.929Z,71.70
2022-11-14T21:51:45.082Z,71.80
2022-11-14T21:54:13.281Z,71.90
2022-11-14T21:56:42.835Z,72.10
2022-11-14T21:59:15.996Z,72.30
2022-11-14T22:02:03.889Z,72.40
2022-11-14T22:04:32.875Z,72.50
2022-11-14T22:07:02.334Z,72.50
2022-11-14T22:09:31.219Z,72.60
2022-11-14T22:12:02.185Z,72.60
2022-11-14T22:14:30.464Z,72.70
2022-11-14T22:16:59.060Z,72.70
2022-11-14T22:19:27.378Z,72.70
2022-11-14T22:21:55.581Z,72.80
2022-11-14T22:24:23.811Z,72.80
2022-11-14T22:26:52.004Z,72.90
2022-11-14T22:29:21.596Z,73.00
2022-11-14T22:31:52.949Z,73.20
2022-11-14T22:34:21.248Z,73.90
2022-11-14T22:36:49.441Z,73.40
2022-11-14T22:39:17.664Z,73.50
2022-11-14T22:41:45.837Z,73.60
2022-11-14T22:44:14.002Z,74.40
2022-11-14T22:46:43.543Z,73.70
2022-11-14T22:49:11.760Z,73.80
2022-11-14T22:51:39.985Z,73.80
2022-11-14T22:54:08.174Z,73.80
2022-11-14T22:56:36.351Z,73.90
2022-11-14T22:59:04.582Z,73.90
2022-11-14T23:01:33.779Z,73.90
2022-11-14T23:04:05.452Z,73.90
2022-11-14T23:06:34.871Z,74.00
2022-11-14T23:09:04.150Z,73.90
2022-11-14T23:11:33.648Z,73.90
2022-11-14T23:14:02.630Z,73.80
2022-11-14T23:16:32.097Z,73.70
2022-11-14T23:19:04.299Z,73.80
2022-11-14T23:21:35.505Z,73.70
2022-11-14T23:24:05.665Z,73.70
2022-11-14T23:26:34.308Z,73.70
2022-11-14T23:29:02.649Z,73.70
2022-11-14T23:31:31.022Z,73.70
2022-11-14T23:33:59.483Z,73.60
2022-11-14T23:36:29.060Z,73.60
2022-11-14T23:38:57.368Z,73.60
2022-11-14T23:41:26.818Z,73.60
2022-11-14T23:43:55.232Z,73.70
2022-11-14T23:46:23.476Z,73.70
2022-11-14T23:48:53.396Z,73.70
2022-11-14T23:51:21.661Z,73.80
2022-11-14T23:53:51.994Z,73.90
2022-11-14T23:56:20.354Z,74.00
2022-11-14T23:58:48.557Z,74.00
